UTTT/TAS METAR and TAF weather

Enter ICAO airport designator
Station Type Date Time Source
UTTT METAR 2021/02/27 21:30 UTC NOAA

UTTT 272130Z 00000KT 4000 BR NSC 01/M03 Q1025 R08R/CLRD70 NOSIG


Station Type Date Time Source
UTTT Decoded METAR 2021/02/27 21:30 UTC NOAA

Tashkent, Uzbekistan (UTTT) 41-16N 069-16E 488M
Feb 27, 2021 - 04:30 PM EST / 2021.02.27 2130 UTC
Wind: Calm:0
Visibility: 2 mile(s):0
Weather: mist
Temperature: 33 F (1 C)
Dew Point: 26 F (-3 C)
Relative Humidity: 74%
Pressure (altimeter): 30.27 in. Hg (1025 hPa)
ob: UTTT 272130Z 00000KT 4000 BR NSC 01/M03 Q1025 R08R/CLRD70 NOSIG
cycle: 21

Station Type Date Time Source
UTTT TAF 2021/02/27 18:09 UTC NOAA

TAF UTTT 271700Z 2718/2818 08010KT 7000 NSC
TEMPO 2718/2803 VRB02KT 2000 BR SCT020

Example: see airport list